Time;durP1;ratioP1;P1;durP2;ratioP2;P2;SDS_P1;SDS_P2;PMS_P1;PMS_P2;Temp;Humidity;BMP_temperature;BMP_pressure;BME280_temperature;BME280_humidity;BME280_pressure;Samples;Min_cycle;Max_cycle;Signal;HPM_P1;HPM_P2
2021/05/29 00:00:11;;;;;;;8.05;5.60;;;12.30;99.90;;;;;;5002488;28;20022;-74
2021/05/29 00:02:37;;;;;;;8.10;5.82;;;12.30;99.90;;;;;;4998378;28;20030;-73
2021/05/29 00:05:05;;;;;;;6.90;4.78;;;12.30;99.90;;;;;;4994238;28;20041;-75
2021/05/29 00:07:32;;;;;;;7.32;5.47;;;12.20;99.90;;;;;;4995883;28;20030;-74
2021/05/29 00:09:59;;;;;;;6.60;5.03;;;12.30;99.90;;;;;;4996335;28;20090;-75
2021/05/29 00:12:25;;;;;;;9.05;4.25;;;12.20;99.90;;;;;;5001468;28;20034;-74
2021/05/29 00:14:51;;;;;;;7.65;4.57;;;12.10;99.90;;;;;;4999583;28;20041;-73
2021/05/29 00:17:18;;;;;;;6.93;4.97;;;12.10;99.90;;;;;;5004790;28;20018;-72
2021/05/29 00:19:50;;;;;;;9.30;4.32;;;12.00;99.90;;;;;;5015498;28;20026;-73
2021/05/29 00:22:18;;;;;;;6.10;5.22;;;11.90;99.90;;;;;;5031756;28;20041;-73
2021/05/29 00:24:47;;;;;;;8.60;5.07;;;11.80;99.90;;;;;;5033150;28;20042;-72
2021/05/29 00:27:14;;;;;;;6.55;4.95;;;11.80;99.90;;;;;;5028028;28;20090;-72
2021/05/29 00:29:40;;;;;;;8.55;5.60;;;11.90;99.90;;;;;;5021269;28;20066;-75
2021/05/29 00:32:19;;;;;;;7.65;5.20;;;11.80;99.90;;;;;;5027326;28;20094;-73
2021/05/29 00:34:46;;;;;;;8.82;5.38;;;11.70;99.90;;;;;;5026855;28;20044;-72
2021/05/29 00:37:13;;;;;;;8.40;5.93;;;11.70;99.90;;;;;;5030186;28;20052;-73
2021/05/29 00:39:39;;;;;;;8.40;5.82;;;11.70;99.90;;;;;;5021260;28;20508;-72
2021/05/29 00:42:05;;;;;;;10.40;5.95;;;11.70;99.90;;;;;;5001149;28;20053;-74
2021/05/29 00:44:47;;;;;;;6.95;5.35;;;11.70;99.90;;;;;;5012456;28;20049;-74
2021/05/29 00:47:12;;;;;;;7.50;5.03;;;11.70;99.90;;;;;;5004017;28;20061;-72
2021/05/29 00:49:38;;;;;;;7.57;5.20;;;11.80;99.90;;;;;;5015397;28;20156;-73
2021/05/29 00:52:04;;;;;;;7.55;6.35;;;11.90;99.90;;;;;;4997765;28;20014;-73
2021/05/29 00:54:30;;;;;;;9.48;6.05;;;11.80;99.90;;;;;;4998036;28;20365;-74
2021/05/29 00:56:59;;;;;;;9.95;5.93;;;11.70;99.90;;;;;;5000717;28;20030;-74
2021/05/29 00:59:25;;;;;;;9.52;5.93;;;11.70;99.90;;;;;;5007366;28;20549;-72
2021/05/29 01:01:51;;;;;;;7.30;5.68;;;11.70;99.90;;;;;;5001149;28;20661;-74
2021/05/29 01:04:16;;;;;;;7.65;5.47;;;11.70;99.90;;;;;;5009178;28;20041;-74
2021/05/29 01:06:42;;;;;;;9.30;5.72;;;11.70;99.90;;;;;;5007444;28;20026;-72
2021/05/29 01:09:08;;;;;;;6.60;5.65;;;11.70;99.90;;;;;;5001737;28;20030;-73
2021/05/29 01:11:33;;;;;;;10.43;5.97;;;11.70;99.90;;;;;;4998691;28;20451;-73
2021/05/29 01:14:01;;;;;;;8.05;6.35;;;11.60;99.90;;;;;;5000029;28;20031;-73
2021/05/29 01:16:44;;;;;;;6.38;5.47;;;11.60;99.90;;;;;;5003507;28;20011;-75
2021/05/29 01:19:14;;;;;;;12.07;7.13;;;11.70;99.90;;;;;;4999423;28;20018;-73
2021/05/29 01:21:40;;;;;;;6.78;5.95;;;11.60;99.90;;;;;;5006587;28;20081;-73
2021/05/29 01:24:06;;;;;;;9.85;6.03;;;11.60;99.90;;;;;;5001119;28;20060;-74
2021/05/29 01:26:32;;;;;;;7.97;6.30;;;11.60;99.90;;;;;;5006131;28;20042;-72
2021/05/29 01:28:58;;;;;;;6.20;5.60;;;11.50;99.90;;;;;;4999289;28;20049;-73
2021/05/29 01:31:30;;;;;;;10.80;7.28;;;11.50;99.90;;;;;;4998360;28;20727;-74
2021/05/29 01:33:57;;;;;;;;;;;11.40;99.90;;;;;;4993438;28;20042;-75
2021/05/29 01:36:23;;;;;;;8.80;6.15;;;11.40;99.90;;;;;;5004824;28;19910;-74
2021/05/29 01:38:50;;;;;;;12.10;6.88;;;11.40;99.90;;;;;;4999604;28;20076;-74
2021/05/29 01:41:17;;;;;;;11.70;6.63;;;11.40;99.90;;;;;;4995887;28;20034;-72
2021/05/29 01:43:45;;;;;;;11.38;7.18;;;11.30;99.90;;;;;;5006683;28;20042;-72
2021/05/29 01:46:13;;;;;;;14.15;6.55;;;11.30;99.90;;;;;;5012215;28;20820;-72
2021/05/29 01:48:42;;;;;;;11.02;6.25;;;11.20;99.90;;;;;;5011563;28;20227;-73
2021/05/29 01:51:10;;;;;;;11.90;6.72;;;11.20;99.90;;;;;;5011863;28;20030;-73
2021/05/29 01:53:36;;;;;;;9.55;7.40;;;11.20;99.90;;;;;;5017031;28;20445;-71
2021/05/29 01:56:03;;;;;;;16.45;8.13;;;11.20;99.90;;;;;;4997604;28;20022;-74
2021/05/29 01:58:29;;;;;;;9.65;6.47;;;11.10;99.90;;;;;;4999539;28;20026;-74
2021/05/29 02:00:56;;;;;;;11.82;7.25;;;11.10;99.90;;;;;;4995158;28;20121;-73
2021/05/29 02:03:22;;;;;;;11.63;7.75;;;11.30;99.90;;;;;;5009824;28;20034;-73
2021/05/29 02:05:48;;;;;;;11.10;6.80;;;11.30;99.90;;;;;;5010128;28;20026;-75
2021/05/29 02:08:13;;;;;;;12.63;7.38;;;11.10;99.90;;;;;;5006378;28;20077;-73
2021/05/29 02:10:41;;;;;;;11.13;7.30;;;11.20;99.90;;;;;;4997823;28;20046;-73
2021/05/29 02:13:19;;;;;;;11.48;7.55;;;11.20;99.90;;;;;;5005965;28;20026;-75
2021/05/29 02:15:45;;;;;;;8.30;6.65;;;11.10;99.90;;;;;;5009952;28;20026;-72
2021/05/29 02:18:10;;;;;;;12.93;7.15;;;11.00;99.90;;;;;;5003030;28;20022;-73
2021/05/29 02:20:46;;;;;;;9.75;7.88;;;11.00;99.90;;;;;;4996623;28;20029;-73
2021/05/29 02:23:21;;;;;;;13.77;7.63;;;11.10;99.90;;;;;;4999433;28;20531;-75
2021/05/29 02:25:48;;;;;;;11.40;7.68;;;11.20;99.90;;;;;;5004338;28;20146;-73
2021/05/29 02:28:14;;;;;;;12.98;7.50;;;11.10;99.90;;;;;;4998750;28;20022;-74
2021/05/29 02:30:41;;;;;;;12.20;7.70;;;10.90;99.90;;;;;;4995951;28;20076;-73
2021/05/29 02:33:07;;;;;;;13.02;7.82;;;10.90;99.90;;;;;;4994592;28;20605;-73
2021/05/29 02:35:34;;;;;;;12.30;7.63;;;11.00;99.90;;;;;;4991477;28;20492;-74
2021/05/29 02:38:00;;;;;;;14.45;7.50;;;10.90;99.90;;;;;;4993853;28;20035;-74
2021/05/29 02:40:26;;;;;;;10.18;7.93;;;10.80;99.90;;;;;;5005457;28;20502;-74
2021/05/29 02:42:52;;;;;;;16.08;8.80;;;10.70;99.90;;;;;;5008041;28;20030;-74
2021/05/29 02:45:17;;;;;;;13.93;8.15;;;10.70;99.90;;;;;;5009515;28;20022;-74
2021/05/29 02:47:43;;;;;;;11.75;7.72;;;10.70;99.90;;;;;;4999848;28;20017;-72
2021/05/29 02:50:10;;;;;;;10.07;8.23;;;10.80;99.90;;;;;;4999616;28;20037;-75
2021/05/29 02:52:37;;;;;;;16.67;9.10;;;10.80;99.90;;;;;;5008492;28;20019;-75
2021/05/29 02:55:03;;;;;;;14.27;8.23;;;10.70;99.90;;;;;;5007568;28;20034;-74
2021/05/29 02:57:29;;;;;;;10.00;8.05;;;10.50;99.90;;;;;;5006968;28;20018;-76
2021/05/29 02:59:55;;;;;;;14.43;9.13;;;10.50;99.90;;;;;;5001822;28;20053;-73
2021/05/29 03:02:20;;;;;;;12.80;8.60;;;10.50;99.90;;;;;;5001636;28;20029;-73
2021/05/29 03:04:46;;;;;;;14.85;8.93;;;10.50;99.90;;;;;;5000346;28;20022;-72
2021/05/29 03:07:12;;;;;;;13.02;9.20;;;10.40;99.90;;;;;;5009515;28;20018;-73
2021/05/29 03:09:37;;;;;;;13.10;8.52;;;10.20;99.90;;;;;;4994313;28;20378;-73
2021/05/29 03:12:03;;;;;;;11.45;9.07;;;10.30;99.90;;;;;;4997581;28;20030;-74
2021/05/29 03:14:29;;;;;;;14.75;8.60;;;10.40;99.90;;;;;;5003754;28;20084;-74
2021/05/29 03:16:55;;;;;;;15.48;8.82;;;10.40;99.90;;;;;;5005146;28;20737;-74
2021/05/29 03:19:21;;;;;;;11.25;9.40;;;10.50;99.90;;;;;;4995870;28;20022;-74
2021/05/29 03:21:47;;;;;;;15.32;9.60;;;10.50;99.90;;;;;;5000319;28;20068;-74
2021/05/29 03:24:13;;;;;;;13.52;10.27;;;10.40;99.90;;;;;;5004388;28;20030;-74
2021/05/29 03:26:38;;;;;;;18.02;9.98;;;10.30;99.90;;;;;;4991685;28;20089;-72
2021/05/29 03:29:05;;;;;;;11.73;8.82;;;10.30;99.90;;;;;;5005496;28;20036;-75
2021/05/29 03:31:32;;;;;;;15.38;9.80;;;10.20;99.90;;;;;;5004511;28;20101;-73
2021/05/29 03:33:57;;;;;;;14.30;10.70;;;10.20;99.90;;;;;;4999325;28;20022;-74
2021/05/29 03:36:29;;;;;;;15.23;9.50;;;10.20;99.90;;;;;;5008922;28;20006;-74
2021/05/29 03:38:54;;;;;;;17.13;11.23;;;10.20;99.90;;;;;;5026545;28;20033;-72
2021/05/29 03:41:20;;;;;;;13.55;10.10;;;10.20;99.90;;;;;;5013071;28;20038;-73
2021/05/29 03:43:48;;;;;;;15.75;9.68;;;10.20;99.90;;;;;;5007499;28;20098;-74
2021/05/29 03:46:14;;;;;;;13.80;9.95;;;10.20;99.90;;;;;;5000001;28;20041;-74
2021/05/29 03:48:39;;;;;;;14.63;10.27;;;10.10;99.90;;;;;;4992955;28;20018;-76
2021/05/29 03:51:05;;;;;;;16.42;10.60;;;10.10;99.90;;;;;;4995389;28;20444;-73
2021/05/29 03:53:31;;;;;;;19.45;10.70;;;10.20;99.90;;;;;;4993044;28;20034;-74
2021/05/29 03:55:56;;;;;;;16.52;10.13;;;10.20;99.90;;;;;;4990524;28;20408;-72
2021/05/29 03:58:22;;;;;;;17.08;9.23;;;10.30;99.90;;;;;;5001753;28;20705;-73
2021/05/29 04:00:48;;;;;;;14.38;10.07;;;10.20;99.90;;;;;;4999598;28;20030;-75
2021/05/29 04:03:14;;;;;;;18.98;10.95;;;10.20;99.90;;;;;;4995332;28;20026;-73
2021/05/29 04:05:41;;;;;;;16.42;9.82;;;10.10;99.90;;;;;;4999702;28;20026;-71
2021/05/29 04:08:07;;;;;;;15.05;9.68;;;10.10;99.90;;;;;;4997405;28;20169;-71
2021/05/29 04:10:34;;;;;;;14.80;9.48;;;10.10;99.90;;;;;;5004899;28;20533;-73
2021/05/29 04:13:01;;;;;;;17.85;11.00;;;10.10;99.90;;;;;;5000057;28;20022;-74
2021/05/29 04:15:26;;;;;;;19.92;9.15;;;10.10;99.90;;;;;;4996824;28;20023;-74
2021/05/29 04:17:53;;;;;;;17.85;9.55;;;10.20;99.90;;;;;;5021296;28;20022;-70
2021/05/29 04:20:27;;;;;;;15.38;9.25;;;10.20;99.90;;;;;;5019712;28;20019;-72
2021/05/29 04:22:56;;;;;;;14.38;9.30;;;10.30;99.90;;;;;;5021826;28;20018;-72
2021/05/29 04:25:25;;;;;;;14.95;8.57;;;10.30;99.90;;;;;;5027501;28;20022;-69
2021/05/29 04:27:51;;;;;;;18.40;8.90;;;10.30;99.90;;;;;;5013721;28;20077;-72
2021/05/29 04:30:23;;;;;;;12.85;9.38;;;10.40;99.90;;;;;;5015355;28;20021;-74
2021/05/29 04:32:53;;;;;;;;;;;10.50;99.90;;;;;;5025431;28;20057;-73
2021/05/29 04:35:32;;;;;;;14.07;8.52;;;10.60;99.90;;;;;;5024923;28;19898;-71
2021/05/29 04:38:13;;;;;;;14.75;8.93;;;10.50;99.90;;;;;;5024588;28;20018;-70
2021/05/29 04:40:51;;;;;;;14.30;8.38;;;10.40;99.90;;;;;;5030791;28;20042;-72
2021/05/29 04:43:23;;;;;;;15.23;9.35;;;10.50;99.90;;;;;;5025089;28;20030;-73
2021/05/29 04:45:49;;;;;;;13.93;8.25;;;10.60;99.90;;;;;;5017092;28;20022;-73
2021/05/29 04:48:17;;;;;;;10.48;7.70;;;10.80;99.90;;;;;;4993672;28;20036;-73
2021/05/29 04:53:29;;;;;;;10.23;7.35;;;11.00;99.90;;;;;;5007983;28;20041;-73
2021/05/29 04:55:57;;;;;;;10.57;7.78;;;11.10;99.90;;;;;;5009690;28;20026;-72
2021/05/29 04:58:23;;;;;;;10.20;7.82;;;11.20;99.90;;;;;;5007304;28;20026;-74
2021/05/29 05:00:50;;;;;;;13.60;7.72;;;11.30;99.90;;;;;;5019054;28;20022;-71
2021/05/29 05:03:23;;;;;;;11.13;7.25;;;11.30;99.90;;;;;;5026874;28;20021;-71
2021/05/29 05:05:48;;;;;;;11.18;7.72;;;11.50;99.90;;;;;;5026405;28;20025;-72
2021/05/29 05:08:15;;;;;;;13.07;7.68;;;11.40;99.90;;;;;;5029067;28;20022;-72
2021/05/29 05:10:47;;;;;;;12.70;7.45;;;11.40;99.90;;;;;;5020985;28;20031;-71
2021/05/29 05:13:16;;;;;;;10.05;6.95;;;11.40;99.90;;;;;;5031668;28;20065;-71
2021/05/29 05:15:41;;;;;;;13.77;7.18;;;11.50;99.90;;;;;;5027777;28;20022;-72
2021/05/29 05:18:08;;;;;;;13.65;7.22;;;11.50;99.90;;;;;;5024009;28;20014;-72
2021/05/29 05:20:35;;;;;;;10.77;7.05;;;11.50;99.90;;;;;;5023186;28;20033;-72
2021/05/29 05:23:03;;;;;;;8.60;5.88;;;11.60;99.90;;;;;;5000309;28;20533;-71
2021/05/29 05:25:35;;;;;;;8.75;6.07;;;11.80;99.90;;;;;;5008578;28;20033;-73
2021/05/29 05:28:14;;;;;;;11.30;5.67;;;11.80;99.90;;;;;;5021073;28;20014;-73
2021/05/29 05:30:47;;;;;;;7.75;5.20;;;11.80;99.90;;;;;;5030808;28;20302;-73
2021/05/29 05:33:13;;;;;;;10.05;6.55;;;11.90;99.90;;;;;;5031829;28;20081;-73
2021/05/29 05:35:43;;;;;;;7.10;5.13;;;12.10;99.90;;;;;;5035484;28;20038;-72
2021/05/29 05:38:15;;;;;;;8.45;6.00;;;12.20;99.90;;;;;;5033556;28;20007;-72
2021/05/29 05:40:40;;;;;;;8.80;6.00;;;12.20;99.90;;;;;;5021831;28;20018;-73
2021/05/29 05:43:09;;;;;;;9.75;5.80;;;12.10;99.90;;;;;;5026764;28;20032;-73
2021/05/29 05:45:35;;;;;;;9.43;6.25;;;12.20;99.90;;;;;;5004482;28;20113;-73
2021/05/29 05:48:00;;;;;;;9.93;5.57;;;12.40;99.90;;;;;;5008351;28;20042;-75
2021/05/29 05:50:27;;;;;;;11.50;5.60;;;12.60;99.90;;;;;;5003399;28;20599;-73
2021/05/29 05:52:52;;;;;;;10.50;6.13;;;12.80;99.90;;;;;;5005026;28;20018;-73
2021/05/29 05:55:18;;;;;;;8.10;5.57;;;12.70;99.90;;;;;;4997366;28;20329;-73
2021/05/29 05:57:44;;;;;;;9.90;6.00;;;12.50;99.90;;;;;;5000994;28;20451;-71
2021/05/29 06:00:14;;;;;;;8.32;5.85;;;12.60;99.90;;;;;;5007347;28;20029;-73
2021/05/29 06:02:42;;;;;;;7.60;5.90;;;12.90;99.90;;;;;;5011343;28;20029;-73
2021/05/29 06:05:08;;;;;;;11.15;6.57;;;13.00;99.90;;;;;;5002692;28;20022;-71
2021/05/29 06:07:34;;;;;;;6.75;5.43;;;13.10;99.90;;;;;;5003625;28;20103;-74
2021/05/29 06:09:59;;;;;;;8.88;5.22;;;13.30;99.90;;;;;;4999170;28;20030;-74
2021/05/29 06:12:25;;;;;;;10.55;5.40;;;13.30;99.90;;;;;;5009093;28;20030;-73
2021/05/29 06:20:19;;;;;;;6.93;5.53;;;13.40;99.90;;;;;;4993236;28;20162;-74
2021/05/29 06:22:45;;;;;;;7.50;5.30;;;13.40;99.90;;;;;;5002160;28;20120;-72
2021/05/29 06:25:13;;;;;;;6.88;4.53;;;13.70;99.90;;;;;;4998262;28;20531;-75
2021/05/29 06:27:39;;;;;;;7.05;4.30;;;14.00;99.90;;;;;;5005397;28;20029;-73
2021/05/29 06:30:07;;;;;;;6.65;4.07;;;14.00;99.90;;;;;;5006728;28;20036;-73
2021/05/29 06:32:33;;;;;;;9.13;4.28;;;14.00;99.90;;;;;;4995358;28;20022;-74
2021/05/29 06:34:59;;;;;;;4.75;3.45;;;14.00;99.90;;;;;;5007478;28;20026;-72
2021/05/29 06:37:24;;;;;;;3.65;3.35;;;14.10;99.90;;;;;;5009742;28;20052;-72
2021/05/29 06:39:50;;;;;;;5.63;3.53;;;14.20;99.90;;;;;;5002773;28;20033;-71
2021/05/29 06:42:16;;;;;;;5.10;3.45;;;14.40;99.90;;;;;;5004698;28;20026;-73
2021/05/29 06:44:41;;;;;;;6.72;3.38;;;14.50;99.90;;;;;;5008403;28;20021;-73
2021/05/29 06:47:07;;;;;;;6.65;3.95;;;14.80;99.90;;;;;;5002651;28;20087;-74
2021/05/29 06:49:35;;;;;;;5.85;4.00;;;14.80;99.90;;;;;;5007665;28;20060;-72
2021/05/29 06:52:05;;;;;;;4.43;3.95;;;14.40;99.90;;;;;;5004346;28;20017;-72
2021/05/29 07:00:07;;;;;;;6.70;3.97;;;14.50;99.90;;;;;;5006062;28;20045;-74
2021/05/29 07:02:33;;;;;;;5.93;3.75;;;14.40;99.90;;;;;;4997582;28;20621;-72
2021/05/29 07:05:00;;;;;;;5.20;4.22;;;14.50;99.90;;;;;;4999733;28;20651;-70
2021/05/29 07:07:26;;;;;;;5.50;4.05;;;14.50;99.90;;;;;;4997053;28;20034;-73
2021/05/29 07:09:51;;;;;;;6.45;4.30;;;14.60;99.90;;;;;;4996121;28;20026;-75
2021/05/29 07:12:17;;;;;;;6.35;3.78;;;14.60;99.90;;;;;;4994649;28;20023;-72
2021/05/29 07:14:43;;;;;;;7.30;4.00;;;14.60;99.90;;;;;;4997770;28;20035;-74
2021/05/29 07:17:09;;;;;;;9.30;4.50;;;14.70;99.90;;;;;;5004291;28;20048;-72
2021/05/29 07:19:35;;;;;;;7.38;4.03;;;15.00;99.90;;;;;;5001294;28;20042;-72
2021/05/29 07:22:01;;;;;;;5.15;3.85;;;15.00;99.90;;;;;;4992600;28;20442;-73
2021/05/29 07:24:27;;;;;;;7.93;3.85;;;15.00;99.90;;;;;;4994820;28;20026;-75
2021/05/29 07:26:53;;;;;;;4.60;3.47;;;15.00;99.90;;;;;;5003064;28;20056;-74
2021/05/29 07:29:19;;;;;;;4.85;3.72;;;14.70;99.90;;;;;;5000993;28;20045;-74
2021/05/29 07:31:46;;;;;;;6.07;3.17;;;14.60;99.90;;;;;;4996823;28;20033;-74
2021/05/29 07:34:12;;;;;;;4.40;4.00;;;14.50;99.90;;;;;;5000790;28;20082;-74
2021/05/29 07:36:39;;;;;;;5.18;3.95;;;14.60;99.90;;;;;;4991032;28;20030;-72
2021/05/29 07:39:05;;;;;;;5.05;3.90;;;14.80;99.90;;;;;;4997090;28;20070;-73
2021/05/29 07:41:32;;;;;;;7.43;4.03;;;14.90;99.90;;;;;;5008867;28;20097;-72
2021/05/29 07:43:58;;;;;;;7.82;4.32;;;15.10;99.90;;;;;;5011549;28;20033;-72
2021/05/29 07:46:24;;;;;;;9.77;4.78;;;15.40;99.90;;;;;;5003410;28;20038;-74
2021/05/29 07:48:51;;;;;;;9.85;4.65;;;15.20;99.90;;;;;;5000724;28;20063;-73
2021/05/29 07:51:18;;;;;;;7.70;4.90;;;15.20;99.90;;;;;;5007461;28;20499;-73
2021/05/29 07:53:45;;;;;;;6.63;3.97;;;14.90;99.90;;;;;;5003547;28;20042;-74
2021/05/29 07:56:14;;;;;;;4.85;4.35;;;14.70;99.90;;;;;;5003698;28;20105;-73
2021/05/29 07:58:41;;;;;;;6.10;4.55;;;15.00;99.90;;;;;;4994499;28;20448;-74
2021/05/29 08:01:09;;;;;;;7.53;4.13;;;15.00;99.90;;;;;;5007643;28;20064;-72
2021/05/29 08:03:35;;;;;;;6.50;4.75;;;15.10;99.90;;;;;;5008408;28;20037;-73
2021/05/29 08:06:05;;;;;;;6.90;4.97;;;15.10;99.90;;;;;;5004262;28;20029;-73
2021/05/29 08:08:30;;;;;;;6.88;4.43;;;15.00;99.90;;;;;;4996246;28;20017;-72
2021/05/29 08:10:59;;;;;;;6.40;4.93;;;14.90;99.90;;;;;;5002596;28;20022;-74
2021/05/29 08:13:25;;;;;;;9.18;4.57;;;15.20;99.90;;;;;;5026920;28;20088;-74
2021/05/29 08:15:51;;;;;;;9.45;5.05;;;15.30;99.90;;;;;;5016837;28;20029;-72
2021/05/29 08:18:17;;;;;;;9.55;5.13;;;15.30;99.90;;;;;;5008554;28;20098;-75
2021/05/29 08:20:44;;;;;;;14.93;5.97;;;15.40;99.90;;;;;;5012209;28;20044;-74
2021/05/29 08:23:10;;;;;;;7.30;4.80;;;15.40;99.90;;;;;;5016359;28;20034;-73
2021/05/29 08:25:36;;;;;;;8.93;5.13;;;15.40;99.90;;;;;;5024803;28;20022;-76
2021/05/29 08:28:02;;;;;;;6.82;5.40;;;15.60;99.90;;;;;;5014883;28;20045;-74
2021/05/29 08:30:28;;;;;;;9.20;5.40;;;15.60;99.90;;;;;;5024907;28;20113;-73
2021/05/29 08:32:54;;;;;;;6.03;5.00;;;15.40;99.90;;;;;;5013294;28;20278;-71
2021/05/29 08:35:20;;;;;;;6.15;4.75;;;15.60;99.90;;;;;;5013003;28;20027;-73
2021/05/29 08:37:46;;;;;;;11.15;6.15;;;15.70;99.90;;;;;;5011226;28;20070;-74
2021/05/29 08:40:16;;;;;;;8.88;5.57;;;15.60;99.90;;;;;;5021070;28;20019;-74
2021/05/29 08:42:43;;;;;;;10.02;5.25;;;15.60;99.90;;;;;;5018906;28;20010;-73
2021/05/29 08:45:09;;;;;;;8.93;5.68;;;15.60;99.90;;;;;;5009684;28;20026;-72
2021/05/29 08:47:36;;;;;;;11.93;6.15;;;15.70;99.90;;;;;;5010619;28;20022;-73
2021/05/29 08:50:04;;;;;;;12.25;5.20;;;15.60;99.90;;;;;;5007272;28;20684;-76
2021/05/29 08:52:41;;;;;;;9.00;5.20;;;15.70;99.90;;;;;;5031882;28;20029;-72
2021/05/29 08:55:09;;;;;;;9.63;5.38;;;15.80;99.90;;;;;;5024577;28;20063;-73
2021/05/29 08:57:39;;;;;;;7.03;3.90;;;15.70;99.90;;;;;;5020591;28;20034;-72
2021/05/29 09:00:08;;;;;;;10.77;6.10;;;15.70;99.90;;;;;;5031350;28;20047;-72
2021/05/29 09:03:00;;;;;;;9.27;5.68;;;15.70;99.90;;;;;;5003166;28;20037;-71
2021/05/29 09:05:38;;;;;;;6.80;5.00;;;15.80;99.90;;;;;;5006100;28;20022;-72
2021/05/29 09:08:10;;;;;;;9.13;4.47;;;15.90;99.90;;;;;;5012621;28;20482;-73
2021/05/29 09:10:48;;;;;;;9.85;4.07;;;16.20;99.90;;;;;;5005435;28;20023;-71
2021/05/29 09:13:22;;;;;;;6.03;4.95;;;16.20;99.90;;;;;;5002550;28;20072;-72
2021/05/29 09:16:00;;;;;;;10.20;6.03;;;16.10;99.90;;;;;;5008949;28;20014;-74
2021/05/29 09:18:45;;;;;;;9.02;5.28;;;16.20;99.90;;;;;;5002713;28;20025;-73
2021/05/29 09:21:28;;;;;;;8.18;5.03;;;16.50;99.90;;;;;;5004064;28;20018;-74
2021/05/29 09:23:59;;;;;;;6.25;4.50;;;16.40;99.90;;;;;;5003585;28;20388;-72
2021/05/29 09:26:55;;;;;;;10.02;5.20;;;16.30;99.90;;;;;;5005400;28;20023;-73
2021/05/29 09:29:28;;;;;;;5.35;4.07;;;16.50;99.90;;;;;;5001714;28;20069;-73
2021/05/29 09:32:05;;;;;;;11.45;5.22;;;16.60;99.90;;;;;;5002654;28;20038;-74
2021/05/29 09:34:42;;;;;;;6.63;4.63;;;16.30;99.90;;;;;;5000619;28;20526;-73
2021/05/29 09:37:13;;;;;;;5.28;4.65;;;16.70;99.90;;;;;;5001419;28;20010;-72
2021/05/29 09:39:43;;;;;;;8.00;4.82;;;16.90;99.90;;;;;;5003853;28;20027;-71
2021/05/29 09:42:10;;;;;;;7.63;5.53;;;17.10;99.90;;;;;;4995025;28;20105;-73
2021/05/29 09:44:36;;;;;;;11.77;5.90;;;16.80;99.90;;;;;;5004857;28;20025;-72
2021/05/29 09:47:04;;;;;;;10.18;6.05;;;16.80;99.90;;;;;;5011441;28;20025;-73
2021/05/29 09:49:47;;;;;;;7.70;6.55;;;16.70;99.90;;;;;;5000093;28;20030;-74
2021/05/29 09:52:26;;;;;;;8.00;6.00;;;17.00;99.90;;;;;;4997393;28;20022;-72
2021/05/29 09:54:53;;;;;;;7.97;4.80;;;16.90;99.90;;;;;;4998543;28;20029;-74
2021/05/29 09:57:19;;;;;;;4.75;3.40;;;17.00;99.90;;;;;;4999355;28;20623;-71
2021/05/29 09:59:57;;;;;;;12.27;4.90;;;17.00;99.90;;;;;;5004575;28;20023;-76
2021/05/29 10:02:24;;;;;;;3.38;3.05;;;16.90;99.90;;;;;;5002175;28;20056;-73
2021/05/29 10:04:55;;;;;;;7.25;3.53;;;17.10;99.90;;;;;;5022017;28;20034;-74
2021/05/29 10:07:40;;;;;;;5.30;3.88;;;17.30;99.90;;;;;;5027494;28;20082;-71
2021/05/29 10:10:35;;;;;;;6.32;3.40;;;17.00;99.90;;;;;;5028089;28;20082;-74
2021/05/29 10:13:02;;;;;;;6.32;3.97;;;17.10;99.90;;;;;;5027704;28;20034;-73
2021/05/29 10:15:28;;;;;;;8.20;4.55;;;17.10;99.90;;;;;;5026729;28;20048;-75
2021/05/29 10:17:57;;;;;;;9.65;4.50;;;17.00;99.90;;;;;;5016986;28;20496;-73
2021/05/29 10:20:23;;;;;;;6.15;4.50;;;17.20;99.90;;;;;;5010223;28;20026;-75
2021/05/29 10:22:49;;;;;;;6.10;3.97;;;17.40;99.90;;;;;;5001363;28;20033;-74
2021/05/29 10:25:18;;;;;;;5.68;4.28;;;17.70;99.90;;;;;;5012245;28;20029;-74
2021/05/29 10:27:47;;;;;;;6.90;3.67;;;17.80;99.90;;;;;;5005919;28;20046;-75
2021/05/29 10:30:13;;;;;;;4.43;4.03;;;17.50;99.90;;;;;;5006936;28;20022;-74
2021/05/29 10:32:39;;;;;;;4.88;3.30;;;17.50;99.90;;;;;;5002837;28;20002;-72
2021/05/29 10:35:11;;;;;;;7.05;3.78;;;17.70;99.90;;;;;;5003874;28;20156;-74
2021/05/29 10:37:41;;;;;;;7.72;3.33;;;18.00;99.90;;;;;;5008104;28;20026;-74
2021/05/29 10:40:27;;;;;;;6.90;4.20;;;18.40;99.90;;;;;;5007605;28;20026;-75
2021/05/29 10:43:20;;;;;;;7.45;3.95;;;17.90;99.90;;;;;;5019771;28;20419;-73
2021/05/29 10:45:52;;;;;;;5.45;3.95;;;18.00;99.90;;;;;;5008102;28;20061;-71
2021/05/29 10:48:17;;;;;;;4.63;3.40;;;18.30;99.90;;;;;;5003714;28;20118;-74
2021/05/29 10:50:58;;;;;;;7.05;4.03;;;18.60;99.90;;;;;;5007486;28;20057;-73
2021/05/29 10:53:45;;;;;;;5.60;4.43;;;18.70;99.90;;;;;;4994886;28;20377;-72
2021/05/29 10:56:20;;;;;;;6.35;4.38;;;18.20;99.90;;;;;;4999979;28;20038;-74
2021/05/29 10:59:08;;;;;;;7.25;4.20;;;17.70;99.90;;;;;;5008282;28;20081;-75
2021/05/29 11:01:37;;;;;;;5.75;4.43;;;18.00;99.90;;;;;;5016703;28;20029;-72
2021/05/29 11:04:15;;;;;;;7.68;4.55;;;17.70;99.90;;;;;;5005515;28;20026;-75
2021/05/29 11:06:54;;;;;;;5.40;3.35;;;17.50;99.90;;;;;;4997840;28;20029;-73
2021/05/29 11:09:32;;;;;;;4.93;3.20;;;17.60;99.90;;;;;;4999144;28;20032;-75
2021/05/29 11:12:05;;;;;;;11.68;4.47;;;17.80;99.90;;;;;;4997651;28;20034;-74
2021/05/29 11:14:49;;;;;;;5.80;4.82;;;18.10;99.90;;;;;;4993268;28;20022;-74
2021/05/29 11:17:17;;;;;;;8.02;4.40;;;18.00;99.90;;;;;;5002775;28;20038;-70
2021/05/29 11:20:00;;;;;;;12.77;4.65;;;18.00;99.90;;;;;;5006187;28;20072;-73
2021/05/29 11:22:26;;;;;;;5.82;4.15;;;18.30;99.90;;;;;;4998019;28;20026;-72
2021/05/29 11:24:56;;;;;;;9.90;4.97;;;18.20;99.90;;;;;;5033021;28;20021;-72
2021/05/29 11:27:25;;;;;;;9.57;5.53;;;18.30;99.90;;;;;;5029949;28;20018;-71
2021/05/29 11:30:14;;;;;;;10.75;4.75;;;18.40;99.90;;;;;;5027237;28;20045;-72
2021/05/29 11:32:58;;;;;;;7.68;4.30;;;18.50;99.90;;;;;;5024039;28;20022;-71
2021/05/29 11:35:29;;;;;;;5.25;4.10;;;18.20;99.90;;;;;;5031707;28;20030;-72
2021/05/29 11:38:07;;;;;;;5.80;4.28;;;17.80;99.90;;;;;;5025343;28;20025;-71
2021/05/29 11:41:08;;;;;;;5.85;4.25;;;18.10;99.90;;;;;;5013887;28;20049;-72
2021/05/29 11:43:48;;;;;;;10.60;4.82;;;18.20;99.90;;;;;;5027514;28;20022;-70
2021/05/29 11:46:28;;;;;;;7.90;4.93;;;17.90;99.90;;;;;;5016906;28;20030;-72
2021/05/29 11:49:04;;;;;;;12.50;4.68;;;17.90;99.90;;;;;;5004688;28;20042;-72
2021/05/29 11:51:44;;;;;;;9.50;4.90;;;18.20;99.90;;;;;;5007226;28;20037;-73
2021/05/29 11:54:10;;;;;;;8.40;4.93;;;18.50;99.90;;;;;;4999973;28;20026;-75
2021/05/29 11:56:38;;;;;;;8.63;5.75;;;18.70;99.90;;;;;;4999832;28;20023;-74
2021/05/29 11:59:07;;;;;;;8.73;5.43;;;18.70;99.90;;;;;;4996464;28;20078;-72
2021/05/29 12:01:41;;;;;;;7.35;4.03;;;18.30;99.90;;;;;;5008771;28;20026;-75
2021/05/29 12:04:11;;;;;;;7.50;5.60;;;18.40;99.90;;;;;;5007694;28;20029;-75
2021/05/29 12:06:43;;;;;;;7.72;4.65;;;18.60;99.90;;;;;;4999677;28;20022;-74
2021/05/29 12:09:11;;;;;;;11.18;5.03;;;18.80;99.90;;;;;;4997247;28;20283;-74
2021/05/29 12:11:40;;;;;;;7.35;5.15;;;19.10;99.90;;;;;;4992489;28;20270;-73
2021/05/29 12:14:11;;;;;;;11.13;6.00;;;18.70;99.90;;;;;;4996838;28;20041;-74
2021/05/29 12:16:49;;;;;;;8.30;5.68;;;18.20;99.90;;;;;;5001098;28;20014;-70
2021/05/29 12:19:34;;;;;;;8.48;4.78;;;18.50;99.90;;;;;;4996524;28;20722;-74
2021/05/29 12:22:01;;;;;;;11.20;5.53;;;18.70;99.90;;;;;;5004121;28;20680;-72
2021/05/29 12:24:33;;;;;;;8.52;6.00;;;19.10;99.90;;;;;;5000936;28;20054;-72
2021/05/29 12:26:59;;;;;;;11.30;5.85;;;19.10;99.90;;;;;;5004129;28;20393;-72
2021/05/29 12:29:25;;;;;;;11.77;5.55;;;18.70;99.90;;;;;;5002157;28;20078;-72
2021/05/29 12:31:54;;;;;;;10.18;5.80;;;18.30;99.90;;;;;;4996944;28;20054;-73
2021/05/29 12:34:22;;;;;;;11.38;5.07;;;18.10;99.90;;;;;;4999508;28;20033;-71
2021/05/29 12:37:09;;;;;;;8.27;4.63;;;18.20;99.90;;;;;;4998580;28;20029;-73
2021/05/29 12:39:45;;;;;;;5.72;4.55;;;18.30;99.90;;;;;;4998776;28;20546;-72
2021/05/29 12:42:36;;;;;;;6.95;4.53;;;18.70;99.90;;;;;;5007788;28;20076;-73
2021/05/29 12:45:18;;;;;;;8.10;3.97;;;18.80;99.90;;;;;;5013723;28;20034;-74
2021/05/29 12:47:57;;;;;;;6.45;4.63;;;19.10;99.90;;;;;;5016226;28;20033;-70
2021/05/29 12:50:38;;;;;;;8.80;4.97;;;19.20;99.90;;;;;;5015430;28;20218;-71
2021/05/29 12:53:07;;;;;;;8.75;4.80;;;18.90;99.90;;;;;;5000759;28;20114;-75
2021/05/29 12:55:33;;;;;;;8.30;5.70;;;18.70;99.90;;;;;;5002816;28;20033;-73
2021/05/29 12:58:18;;;;;;;9.82;5.85;;;19.00;99.90;;;;;;5000565;28;20018;-72
2021/05/29 13:00:59;;;;;;;7.40;5.85;;;19.10;99.90;;;;;;4998815;28;20016;-74
2021/05/29 13:09:37;;;;;;;11.27;6.63;;;18.70;99.90;;;;;;5000515;28;20037;-72
2021/05/29 13:12:12;;;;;;;11.43;6.07;;;18.80;99.90;;;;;;5006392;28;20462;-74
2021/05/29 13:14:38;;;;;;;9.25;6.07;;;18.80;99.90;;;;;;5014250;28;20022;-73